Time;durP1;ratioP1;P1;durP2;ratioP2;P2;SDS_P1;SDS_P2;PMS_P1;PMS_P2;Temp;Humidity;BMP_temperature;BMP_pressure;BME280_temperature;BME280_humidity;BME280_pressure;Samples;Min_cycle;Max_cycle;Signal;HPM_P1;HPM_P2
2021/01/10 00:00:29;;;;;;;19.03;11.73;;;;;;;1.35;59.77;97142.19;5075000;28;20175;-67
2021/01/10 00:02:56;;;;;;;18.63;12.20;;;;;;;1.39;59.57;97132.50;5073771;28;20802;-66
2021/01/10 00:05:24;;;;;;;22.80;12.80;;;;;;;1.41;59.85;97134.97;5075153;28;20428;-65
2021/01/10 00:07:50;;;;;;;20.73;11.50;;;;;;;1.46;59.53;97135.50;5073966;28;20447;-67
2021/01/10 00:10:17;;;;;;;21.50;12.67;;;;;;;1.38;59.29;97134.25;5074658;28;20577;-66
2021/01/10 00:12:42;;;;;;;18.80;11.73;;;;;;;1.44;59.80;97135.63;5065951;28;20432;-67
2021/01/10 00:15:10;;;;;;;21.30;11.83;;;;;;;1.48;59.71;97128.50;5065478;28;20567;-68
2021/01/10 00:17:37;;;;;;;19.40;12.37;;;;;;;1.38;59.58;97126.50;5074407;28;20202;-65
2021/01/10 00:20:05;;;;;;;22.03;12.70;;;;;;;1.47;59.63;97121.66;5087489;28;20424;-67
2021/01/10 00:22:31;;;;;;;22.60;12.30;;;;;;;1.57;59.05;97130.50;5092206;28;20420;-67
2021/01/10 00:24:56;;;;;;;17.43;10.87;;;;;;;1.66;59.24;97124.72;5077602;28;20424;-67
2021/01/10 00:27:23;;;;;;;16.37;10.87;;;;;;;1.68;58.65;97122.88;5073717;28;20211;-66
2021/01/10 00:29:53;;;;;;;16.90;10.97;;;;;;;1.42;58.92;97121.13;5056309;28;20530;-66
2021/01/10 00:32:19;;;;;;;23.40;12.17;;;;;;;1.41;59.18;97124.63;5039038;28;20424;-65
2021/01/10 00:34:45;;;;;;;22.23;12.57;;;;;;;1.31;58.94;97124.41;5073568;28;20511;-66
2021/01/10 00:37:13;;;;;;;17.43;11.30;;;;;;;1.16;59.54;97121.00;5072292;28;20944;-66
2021/01/10 00:39:40;;;;;;;17.50;11.00;;;;;;;1.17;59.60;97125.25;5073411;28;20424;-67
2021/01/10 00:42:10;;;;;;;19.20;12.13;;;;;;;0.89;60.82;97130.38;5070408;28;20920;-66
2021/01/10 00:44:36;;;;;;;22.27;12.73;;;;;;;1.13;60.23;97132.34;5073924;28;20989;-65
2021/01/10 00:47:03;;;;;;;20.07;11.83;;;;;;;1.18;60.09;97132.06;5072126;28;20443;-66
2021/01/10 00:49:29;;;;;;;21.73;12.30;;;;;;;0.94;60.77;97127.50;5068111;28;20426;-67
2021/01/10 00:51:54;;;;;;;21.30;12.63;;;;;;;1.06;60.53;97136.25;5073341;28;20428;-67
2021/01/10 00:54:20;;;;;;;18.03;12.13;;;;;;;1.07;60.71;97131.00;5072675;28;20179;-67
2021/01/10 00:56:47;;;;;;;19.30;12.17;;;;;;;1.16;60.34;97139.91;5072753;28;20206;-66
2021/01/10 00:59:13;;;;;;;21.47;12.80;;;;;;;1.14;60.72;97139.19;5073070;28;20206;-67
2021/01/10 01:01:38;;;;;;;16.97;11.20;;;;;;;1.08;61.38;97136.97;5072938;28;20421;-66
2021/01/10 01:04:04;;;;;;;21.47;11.83;;;;;;;1.14;60.93;97139.19;5072486;28;20421;-67
2021/01/10 01:06:31;;;;;;;19.93;12.40;;;;;;;1.23;60.81;97145.53;5073833;28;20174;-66
2021/01/10 01:08:56;;;;;;;18.93;11.87;;;;;;;1.11;60.82;97147.09;5073950;28;20218;-66
2021/01/10 01:11:28;;;;;;;18.67;11.70;;;;;;;1.18;60.65;97144.97;5073506;28;20456;-67
2021/01/10 01:13:54;;;;;;;18.20;11.60;;;;;;;1.21;60.30;97140.44;5071946;28;20182;-65
2021/01/10 01:16:19;;;;;;;19.87;11.27;;;;;;;1.04;60.74;97149.25;5072490;28;20460;-67
2021/01/10 01:18:45;;;;;;;19.50;12.50;;;;;;;1.12;60.77;97147.97;5073652;28;20225;-67
2021/01/10 01:21:14;;;;;;;18.23;11.37;;;;;;;1.18;60.86;97144.97;5073602;28;20270;-68
2021/01/10 01:23:40;;;;;;;19.50;11.70;;;;;;;1.22;60.59;97146.47;5073768;28;20179;-67
2021/01/10 01:26:06;;;;;;;18.70;12.07;;;;;;;1.09;61.17;97150.72;5072796;28;20420;-68
2021/01/10 01:28:31;;;;;;;21.10;12.60;;;;;;;1.23;60.66;97151.50;5072679;28;20209;-65
2021/01/10 01:30:57;;;;;;;19.60;12.70;;;;;;;0.98;61.25;97154.78;5070187;28;20596;-66
2021/01/10 01:33:23;;;;;;;23.27;13.43;;;;;;;0.98;61.21;97159.97;5071924;28;20213;-65
2021/01/10 01:35:49;;;;;;;24.13;13.40;;;;;;;0.89;62.09;97155.31;5071269;28;20205;-65
2021/01/10 01:38:14;;;;;;;21.67;14.60;;;;;;;0.60;62.66;97156.16;5072273;28;20213;-67
2021/01/10 01:40:40;;;;;;;24.40;14.50;;;;;;;0.44;64.28;97165.75;5071593;28;20923;-66
2021/01/10 01:43:08;;;;;;;25.23;14.63;;;;;;;0.60;63.73;97161.31;5069512;28;20574;-66
2021/01/10 01:45:34;;;;;;;28.07;14.90;;;;;;;0.89;62.34;97165.66;5072424;28;20212;-67
2021/01/10 01:48:01;;;;;;;26.60;15.63;;;;;;;0.40;63.51;97169.41;5064427;28;20446;-67
2021/01/10 01:50:26;;;;;;;26.73;14.77;;;;;;;0.68;63.55;97166.03;5071477;28;20187;-67
2021/01/10 01:52:52;;;;;;;24.77;15.40;;;;;;;0.74;63.11;97160.53;5072051;28;20443;-66
2021/01/10 01:55:18;;;;;;;25.93;15.57;;;;;;;0.85;63.27;97175.34;5072267;28;20213;-65
2021/01/10 01:57:44;;;;;;;26.50;15.57;;;;;;;0.82;63.29;97178.09;5071334;28;20614;-64
2021/01/10 02:00:10;;;;;;;26.93;15.83;;;;;;;0.56;63.54;97187.41;5073202;28;20201;-66
2021/01/10 02:02:36;;;;;;;28.57;16.30;;;;;;;0.82;63.28;97185.84;5072285;28;20214;-64
2021/01/10 02:05:07;;;;;;;28.57;16.93;;;;;;;0.83;63.47;97184.09;5073107;28;20459;-66
2021/01/10 02:07:40;;;;;;;30.63;16.47;;;;;;;0.86;63.26;97183.94;5070693;28;20222;-65
2021/01/10 02:10:08;;;;;;;26.87;15.90;;;;;;;0.61;63.63;97170.72;5070999;28;20421;-66
2021/01/10 02:12:40;;;;;;;26.63;15.80;;;;;;;0.69;63.89;97172.03;5069579;28;20783;-65
2021/01/10 02:15:09;;;;;;;27.20;16.60;;;;;;;0.63;63.42;97175.78;5071075;28;20942;-64
2021/01/10 02:17:35;;;;;;;27.80;16.90;;;;;;;0.75;63.09;97163.91;5072788;28;20436;-66
2021/01/10 02:20:07;;;;;;;25.87;16.37;;;;;;;0.72;63.59;97159.78;5070664;28;20425;-66
2021/01/10 02:22:39;;;;;;;26.23;15.93;;;;;;;0.70;63.84;97156.47;5072127;28;20228;-67
2021/01/10 02:25:05;;;;;;;27.57;16.10;;;;;;;0.87;63.59;97163.19;5067829;28;20412;-68
2021/01/10 02:27:31;;;;;;;29.90;17.60;;;;;;;0.79;63.60;97169.72;5066904;28;20444;-66
2021/01/10 02:29:57;;;;;;;31.40;17.13;;;;;;;0.89;63.46;97161.34;5068969;28;20447;-67
2021/01/10 02:32:23;;;;;;;26.93;16.43;;;;;;;0.97;63.30;97173.78;5037415;28;20544;-67
2021/01/10 02:34:50;;;;;;;25.63;15.23;;;;;;;0.97;62.85;97165.19;5069934;28;20186;-67
2021/01/10 02:37:21;;;;;;;26.97;15.40;;;;;;;0.92;63.14;97160.31;5057121;28;20456;-66
2021/01/10 02:40:07;;;;;;;28.73;15.90;;;;;;;0.72;63.76;97164.94;5075477;28;20424;-65
2021/01/10 02:43:11;;;;;;;25.00;15.73;;;;;;;0.70;63.95;97156.47;5063528;28;20920;-66
2021/01/10 02:45:40;;;;;;;26.93;16.33;;;;;;;0.82;63.68;97151.47;5063321;28;20437;-65
2021/01/10 02:48:09;;;;;;;26.73;15.70;;;;;;;0.94;63.56;97152.50;5061614;28;20479;-68
2021/01/10 02:50:35;;;;;;;27.73;16.50;;;;;;;0.95;62.83;97149.81;5070852;28;20417;-65
2021/01/10 02:53:00;;;;;;;24.10;15.60;;;;;;;0.81;63.15;97152.38;5071198;28;20435;-67
2021/01/10 02:55:26;;;;;;;30.37;15.80;;;;;;;0.84;63.00;97158.19;5069338;28;20547;-66
2021/01/10 02:57:56;;;;;;;29.60;16.80;;;;;;;0.79;63.21;97159.38;5070796;28;20206;-65
2021/01/10 03:00:23;;;;;;;28.03;16.70;;;;;;;0.86;63.23;97150.38;5070008;28;20251;-65
2021/01/10 03:02:51;;;;;;;24.40;14.60;;;;;;;0.95;63.08;97156.72;5070076;28;20481;-65
2021/01/10 03:05:17;;;;;;;24.90;15.73;;;;;;;0.91;62.83;97143.16;5068766;28;20446;-68
2021/01/10 03:07:44;;;;;;;25.80;15.80;;;;;;;0.82;62.65;97148.91;5069773;28;20535;-66
2021/01/10 03:10:11;;;;;;;28.30;15.87;;;;;;;0.77;63.04;97147.41;5069528;28;20735;-67
2021/01/10 03:12:37;;;;;;;25.33;16.03;;;;;;;0.82;63.03;97144.53;5068541;28;21115;-66
2021/01/10 03:15:03;;;;;;;29.17;15.17;;;;;;;0.77;62.49;97144.81;5052632;28;20459;-64
2021/01/10 03:17:36;;;;;;;25.97;14.67;;;;;;;0.74;62.24;97134.72;5070798;28;20403;-66
2021/01/10 03:20:06;;;;;;;27.93;15.60;;;;;;;0.70;62.54;97140.97;5052681;28;20820;-66
2021/01/10 03:22:31;;;;;;;24.20;14.40;;;;;;;0.80;62.48;97132.66;5063389;28;20798;-67
2021/01/10 03:24:57;;;;;;;22.63;14.40;;;;;;;0.85;62.23;97133.22;5071933;28;20424;-65
2021/01/10 03:27:23;;;;;;;21.83;14.23;;;;;;;0.84;61.91;97131.56;5070906;28;20202;-66
2021/01/10 03:29:49;;;;;;;25.60;14.40;;;;;;;0.68;62.27;97127.34;5069804;28;20210;-66
2021/01/10 03:32:14;;;;;;;24.30;14.17;;;;;;;0.72;62.43;97121.06;5080813;28;20185;-62
2021/01/10 03:34:41;;;;;;;22.53;12.67;;;;;;;0.70;62.40;97115.19;5079669;28;20523;-66
2021/01/10 03:37:07;;;;;;;21.90;12.90;;;;;;;0.75;62.19;97122.63;5071205;28;20225;-66
2021/01/10 03:39:33;;;;;;;24.87;14.20;;;;;;;0.63;62.42;97126.78;5069711;28;20460;-67
2021/01/10 03:41:59;;;;;;;22.93;14.70;;;;;;;0.52;62.47;97118.84;5065815;28;20968;-66
2021/01/10 03:44:25;;;;;;;22.33;13.67;;;;;;;0.57;63.03;97125.38;5070256;28;20444;-66
2021/01/10 03:46:52;;;;;;;24.13;14.37;;;;;;;0.47;62.45;97119.13;5070127;28;20175;-65
2021/01/10 03:49:18;;;;;;;29.47;15.07;;;;;;;0.49;62.46;97121.63;5063365;28;20578;-66
2021/01/10 03:51:43;;;;;;;23.87;14.80;;;;;;;0.53;62.71;97116.19;5070526;28;20499;-66
2021/01/10 03:54:09;;;;;;;27.23;14.60;;;;;;;0.52;63.17;97121.44;5054016;28;20206;-67
2021/01/10 03:56:35;;;;;;;24.50;13.90;;;;;;;0.53;63.60;97129.09;5070221;28;20270;-64
2021/01/10 03:59:00;;;;;;;24.83;13.87;;;;;;;0.61;63.41;97126.06;5068137;28;20183;-65
2021/01/10 04:01:26;;;;;;;22.97;14.00;;;;;;;0.61;62.96;97126.06;5069383;28;20562;-64
2021/01/10 04:03:52;;;;;;;24.70;14.33;;;;;;;0.69;62.69;97129.00;5070064;28;20714;-66
2021/01/10 04:06:17;;;;;;;23.03;13.53;;;;;;;0.66;62.87;97123.19;5070469;28;20266;-65
2021/01/10 04:08:45;;;;;;;22.03;13.10;;;;;;;0.75;62.80;97122.63;5073429;28;20204;-65
2021/01/10 04:11:11;;;;;;;22.40;13.00;;;;;;;0.64;63.09;97128.44;5074151;28;20703;-65
2021/01/10 04:13:37;;;;;;;22.40;12.73;;;;;;;0.80;62.34;97130.09;5071997;28;20424;-65
2021/01/10 04:16:03;;;;;;;23.10;13.30;;;;;;;0.76;62.19;97137.19;5071610;28;20289;-65
2021/01/10 04:18:29;;;;;;;23.93;13.47;;;;;;;0.60;62.30;97130.38;5072782;28;20209;-66
2021/01/10 04:20:54;;;;;;;23.57;13.93;;;;;;;0.59;62.46;97133.06;5062101;28;20449;-66
2021/01/10 04:23:20;;;;;;;22.60;12.73;;;;;;;0.60;62.21;97130.38;5058668;28;20186;-67
2021/01/10 04:25:46;;;;;;;22.53;13.53;;;;;;;0.65;62.75;97126.69;5072758;28;20170;-65
2021/01/10 04:28:11;;;;;;;23.97;14.63;;;;;;;0.68;62.58;97132.50;5072128;28;20292;-66
2021/01/10 04:30:37;;;;;;;18.23;11.90;;;;;;;0.59;62.37;97122.72;5044667;28;20184;-66
2021/01/10 04:33:03;;;;;;;21.13;13.10;;;;;;;0.51;62.63;97125.78;5062929;28;20189;-66
2021/01/10 04:35:28;;;;;;;20.70;12.37;;;;;;;0.54;62.94;97125.59;5051871;28;20207;-64
2021/01/10 04:37:54;;;;;;;22.60;14.23;;;;;;;0.61;62.37;97138.97;5051838;28;20694;-65
2021/01/10 04:40:20;;;;;;;22.40;13.77;;;;;;;0.26;63.02;97136.69;5053402;28;20179;-65
2021/01/10 04:42:46;;;;;;;25.43;13.70;;;;;;;-0.12;65.29;97137.16;5054129;28;20274;-64
2021/01/10 04:45:12;;;;;;;21.17;13.20;;;;;;;0.32;64.03;97130.34;5052329;28;20422;-65
2021/01/10 04:47:38;;;;;;;20.70;12.97;;;;;;;0.46;63.56;97132.94;5051946;28;20440;-65
2021/01/10 04:50:04;;;;;;;20.20;13.40;;;;;;;0.47;63.43;97141.53;5051825;28;20183;-67
2021/01/10 04:52:32;;;;;;;23.97;14.53;;;;;;;0.37;63.83;97133.50;5053429;28;20618;-62
2021/01/10 04:55:00;;;;;;;23.70;13.93;;;;;;;0.44;62.90;97135.63;5052194;28;20433;-65
2021/01/10 04:57:27;;;;;;;23.20;12.97;;;;;;;0.40;63.50;97133.31;5052237;28;20456;-65
2021/01/10 04:59:54;;;;;;;20.63;12.23;;;;;;;0.45;62.72;97126.97;5053307;28;20486;-68
2021/01/10 05:02:25;;;;;;;18.57;11.67;;;;;;;0.53;62.27;97130.81;5046202;28;20422;-65
2021/01/10 05:04:51;;;;;;;19.00;12.10;;;;;;;0.49;62.47;97126.78;5053034;28;20458;-65
2021/01/10 05:07:17;;;;;;;17.40;11.10;;;;;;;0.31;62.63;97137.25;5057709;28;20451;-65
2021/01/10 05:09:42;;;;;;;18.20;11.60;;;;;;;0.54;61.88;97135.06;5056748;28;20431;-66
2021/01/10 05:12:08;;;;;;;22.87;13.73;;;;;;;0.50;62.57;97128.44;5050661;28;20179;-65
2021/01/10 05:14:34;;;;;;;19.57;12.47;;;;;;;0.62;62.46;97125.13;5052674;28;20186;-66
2021/01/10 05:17:00;;;;;;;18.73;12.07;;;;;;;0.68;61.84;97129.91;5050805;28;20232;-65
2021/01/10 05:19:28;;;;;;;20.37;12.50;;;;;;;0.84;61.21;97137.53;5052286;28;20662;-65
2021/01/10 05:21:54;;;;;;;18.50;11.80;;;;;;;0.82;61.27;97138.56;5052932;28;20191;-64
2021/01/10 05:24:20;;;;;;;16.30;10.77;;;;;;;0.84;61.39;97131.56;5053082;28;20426;-65
2021/01/10 05:26:46;;;;;;;17.77;11.03;;;;;;;0.97;60.75;97129.06;5052377;28;20478;-63
2021/01/10 05:29:12;;;;;;;14.67;10.03;;;;;;;0.95;60.55;97139.50;5052212;28;20509;-65
2021/01/10 05:31:41;;;;;;;16.47;9.83;;;;;;;0.74;60.41;97145.03;5045080;28;20433;-64
2021/01/10 05:34:13;;;;;;;16.13;10.30;;;;;;;0.82;59.98;97134.22;5051109;28;20465;-66
2021/01/10 05:36:40;;;;;;;14.93;10.00;;;;;;;0.91;60.02;97132.84;5051719;28;20959;-64
2021/01/10 05:39:24;;;;;;;14.53;9.87;;;;;;;0.82;60.29;97136.00;5052093;28;20422;-65
2021/01/10 05:41:54;;;;;;;14.90;10.27;;;;;;;0.94;60.05;97134.44;5052692;28;20425;-66
2021/01/10 05:44:20;;;;;;;18.77;11.30;;;;;;;1.07;60.08;97138.72;5060321;28;20528;-65
2021/01/10 05:46:46;;;;;;;16.20;10.20;;;;;;;1.03;59.55;97137.25;5051896;28;20422;-66
2021/01/10 05:49:19;;;;;;;21.23;12.23;;;;;;;1.01;59.28;97139.09;5051943;28;20426;-67
2021/01/10 05:51:46;;;;;;;19.70;11.67;;;;;;;0.92;60.22;97144.81;5059057;28;20262;-67
2021/01/10 05:54:37;;;;;;;19.63;12.23;;;;;;;0.85;61.22;97144.38;5052259;28;20432;-64
2021/01/10 05:57:05;;;;;;;21.90;13.03;;;;;;;0.73;61.87;97145.97;5051149;28;20461;-66
2021/01/10 05:59:33;;;;;;;19.13;11.97;;;;;;;0.57;62.95;97145.22;5051737;28;20520;-64
2021/01/10 06:02:01;;;;;;;24.13;14.67;;;;;;;0.72;62.36;97149.47;5045301;28;20516;-65
2021/01/10 06:04:27;;;;;;;22.27;12.90;;;;;;;0.73;62.56;97151.13;5051597;28;20483;-65
2021/01/10 06:06:54;;;;;;;20.77;12.03;;;;;;;0.82;62.65;97143.72;5051222;28;20425;-66
2021/01/10 06:09:20;;;;;;;21.10;12.60;;;;;;;0.65;62.58;97153.31;5050669;28;20436;-65
2021/01/10 06:11:46;;;;;;;21.27;12.27;;;;;;;0.14;64.34;97149.38;5033456;28;20469;-65
2021/01/10 06:14:19;;;;;;;27.13;14.53;;;;;;;0.49;63.91;97152.59;5049191;28;20579;-66
2021/01/10 06:16:51;;;;;;;21.20;13.30;;;;;;;-0.03;64.69;97159.84;5051332;28;20811;-65
2021/01/10 06:19:18;;;;;;;20.03;12.40;;;;;;;0.24;64.68;97159.16;5051514;28;20439;-66
2021/01/10 06:21:48;;;;;;;21.97;13.03;;;;;;;0.25;63.75;97160.84;5050060;28;20466;-66
2021/01/10 06:24:19;;;;;;;23.47;13.47;;;;;;;0.29;64.46;97151.97;5054635;28;20860;-66
2021/01/10 06:26:49;;;;;;;17.80;11.47;;;;;;;0.47;63.89;97160.38;5050514;28;20418;-65
2021/01/10 06:29:17;;;;;;;19.57;12.10;;;;;;;0.66;63.27;97154.97;5049230;28;20424;-66
2021/01/10 06:31:46;;;;;;;21.87;11.97;;;;;;;0.80;63.12;97150.72;5041413;28;20444;-65
2021/01/10 06:34:12;;;;;;;20.63;13.07;;;;;;;0.89;62.08;97150.16;5043352;28;20428;-65
2021/01/10 06:36:38;;;;;;;26.23;11.77;;;;;;;0.91;61.75;97150.91;5051300;28;20457;-65
2021/01/10 06:39:14;;;;;;;19.90;12.00;;;;;;;0.87;62.27;97146.88;5050933;28;20468;-67
2021/01/10 06:41:52;;;;;;;22.00;12.10;;;;;;;0.96;61.97;97145.47;5049765;28;20540;-64
2021/01/10 06:44:21;;;;;;;19.20;11.13;;;;;;;0.97;60.35;97135.06;5066900;28;20436;-65
2021/01/10 06:46:51;;;;;;;13.97;9.87;;;;;;;1.07;60.05;97133.56;5077897;28;20435;-64
2021/01/10 06:49:17;;;;;;;14.17;9.63;;;;;;;1.01;59.54;97133.13;5055155;28;20428;-67
2021/01/10 06:51:44;;;;;;;14.33;9.60;;;;;;;0.89;59.53;97132.09;5071158;28;20433;-67
2021/01/10 06:54:10;;;;;;;12.10;8.17;;;;;;;1.03;58.55;97129.50;5070232;28;20801;-66
2021/01/10 06:56:36;;;;;;;10.63;7.57;;;;;;;1.07;57.62;97131.00;5071195;28;20518;-66
2021/01/10 06:59:15;;;;;;;12.43;7.60;;;;;;;0.69;58.03;97129.00;5052740;28;20841;-65
2021/01/10 07:01:47;;;;;;;9.03;5.97;;;;;;;0.87;57.55;97127.03;5071007;28;20516;-67
2021/01/10 07:04:13;;;;;;;7.80;5.93;;;;;;;1.15;56.39;97132.25;5054837;28;20512;-68
2021/01/10 07:06:46;;;;;;;9.17;6.70;;;;;;;0.94;57.01;97131.84;5070299;28;20910;-66
2021/01/10 07:09:12;;;;;;;9.73;6.70;;;;;;;0.92;57.00;97144.81;5055328;28;20421;-65
2021/01/10 07:11:38;;;;;;;9.67;6.80;;;;;;;0.72;57.93;97141.72;5041956;28;20484;-65
2021/01/10 07:14:04;;;;;;;13.03;8.23;;;;;;;0.70;59.21;97140.13;5070352;28;20437;-65
2021/01/10 07:16:30;;;;;;;13.90;9.10;;;;;;;1.00;58.78;97147.78;5070498;28;20465;-66
2021/01/10 07:19:03;;;;;;;16.87;10.10;;;;;;;0.86;59.55;97156.34;5079397;28;20210;-67
2021/01/10 07:21:38;;;;;;;16.07;10.80;;;;;;;0.84;60.04;97152.22;5069856;28;20649;-65
2021/01/10 07:24:13;;;;;;;16.70;11.00;;;;;;;0.96;60.11;97156.63;5069723;28;20440;-65
2021/01/10 07:26:39;;;;;;;16.20;10.27;;;;;;;0.97;60.05;97155.72;5070217;28;20420;-66
2021/01/10 07:29:24;;;;;;;18.77;11.67;;;;;;;0.97;60.82;97150.56;5071416;28;20430;-66
2021/01/10 07:31:57;;;;;;;19.33;12.73;;;;;;;0.89;61.15;97152.75;5071717;28;20193;-66
2021/01/10 07:34:23;;;;;;;20.20;12.20;;;;;;;0.77;61.51;97150.00;5063243;28;20474;-66
2021/01/10 07:36:51;;;;;;;22.03;12.80;;;;;;;0.74;62.21;97152.78;5071742;28;20464;-66
2021/01/10 07:39:18;;;;;;;19.60;12.30;;;;;;;0.84;61.46;97153.03;5073533;28;20182;-64
2021/01/10 07:41:43;;;;;;;22.93;13.43;;;;;;;0.84;61.70;97152.22;5060665;28;21140;-66
2021/01/10 07:44:10;;;;;;;21.37;12.60;;;;;;;0.57;62.61;97158.09;5075072;28;20432;-65
2021/01/10 07:46:57;;;;;;;27.13;13.47;;;;;;;0.83;62.62;97150.56;5074635;28;20178;-66
2021/01/10 07:49:25;;;;;;;21.17;13.30;;;;;;;0.77;61.99;97157.72;5069029;28;20480;-66
2021/01/10 07:51:51;;;;;;;21.90;13.40;;;;;;;0.53;61.99;97165.19;5075127;28;20457;-64
2021/01/10 07:54:17;;;;;;;20.27;12.10;;;;;;;-0.13;65.06;97163.84;5074174;28;20441;-64
2021/01/10 07:56:43;;;;;;;25.67;13.63;;;;;;;-0.01;65.31;97166.56;5074632;28;20562;-67
2021/01/10 07:59:18;;;;;;;20.90;12.67;;;;;;;0.00;65.00;97164.81;5057754;28;20412;-66
2021/01/10 08:01:50;;;;;;;23.23;13.60;;;;;;;0.59;63.33;97164.00;5063525;28;20642;-68
2021/01/10 08:04:33;;;;;;;19.00;12.40;;;;;;;0.54;62.93;97171.19;5058658;28;20867;-66
2021/01/10 08:07:00;;;;;;;22.17;13.17;;;;;;;0.44;63.40;97174.31;5074216;28;20439;-66
2021/01/10 08:09:35;;;;;;;22.63;13.87;;;;;;;0.15;64.67;97186.31;5073908;28;20421;-64
2021/01/10 08:12:00;;;;;;;22.27;13.60;;;;;;;0.59;63.47;97174.31;5060730;28;20491;-66
2021/01/10 08:14:26;;;;;;;20.63;13.47;;;;;;;0.68;63.38;97175.53;5073935;28;20743;-65
2021/01/10 08:16:52;;;;;;;20.80;12.93;;;;;;;0.82;63.14;97178.09;5055535;28;20231;-65
2021/01/10 08:19:18;;;;;;;21.20;13.90;;;;;;;0.91;62.97;97171.56;5062039;28;20460;-67
2021/01/10 08:21:44;;;;;;;22.00;13.40;;;;;;;0.93;62.44;97166.31;5072479;28;20210;-68
2021/01/10 08:24:11;;;;;;;25.13;14.00;;;;;;;0.92;62.20;97170.63;5073750;28;20232;-65
2021/01/10 08:26:38;;;;;;;21.10;13.93;;;;;;;0.72;63.29;97172.69;5072398;28;20421;-66
2021/01/10 08:29:06;;;;;;;23.00;13.47;;;;;;;0.82;62.46;97172.94;5072441;28;20433;-65
2021/01/10 08:31:32;;;;;;;22.17;13.27;;;;;;;0.97;62.45;97178.94;5070820;28;20766;-65
2021/01/10 08:33:59;;;;;;;21.27;13.63;;;;;;;0.99;61.96;97181.41;5073478;28;20802;-66
2021/01/10 08:36:25;;;;;;;25.67;13.23;;;;;;;1.20;62.07;97180.09;5073694;28;20547;-67
2021/01/10 08:38:59;;;;;;;25.07;14.67;;;;;;;1.27;62.31;97183.13;5070977;28;20460;-67
2021/01/10 08:41:34;;;;;;;22.05;14.60;;;;;;;1.29;62.25;97183.88;5063681;28;20436;-65
2021/01/10 08:44:10;;;;;;;20.43;13.43;;;;;;;1.36;61.65;97180.00;5070826;28;20226;-66
2021/01/10 08:46:45;;;;;;;21.93;13.33;;;;;;;1.46;60.24;97185.41;5073643;28;20435;-65
2021/01/10 08:49:18;;;;;;;22.80;14.03;;;;;;;1.39;60.67;97178.97;5064650;28;20552;-65
2021/01/10 08:51:44;;;;;;;19.50;13.23;;;;;;;1.50;60.89;97180.91;5072176;28;20505;-67
2021/01/10 08:54:21;;;;;;;19.60;12.00;;;;;;;1.67;60.19;97177.25;5056519;28;20460;-66
2021/01/10 08:56:51;;;;;;;21.17;13.13;;;;;;;1.60;59.73;97175.97;5072856;28;20456;-65
2021/01/10 08:59:19;;;;;;;20.70;12.93;;;;;;;1.78;59.63;97185.16;5071441;28;20428;-65
2021/01/10 09:01:45;;;;;;;22.70;12.20;;;;;;;1.94;59.35;97179.81;5073096;28;20417;-66
2021/01/10 09:04:12;;;;;;;22.43;13.87;;;;;;;1.97;59.16;97179.63;5071734;28;20420;-64
2021/01/10 09:06:41;;;;;;;22.20;13.50;;;;;;;2.01;58.78;97180.25;5073396;28;20503;-64
2021/01/10 09:09:45;;;;;;;27.53;12.57;;;;;;;1.61;59.55;97178.47;5072831;28;20429;-67
2021/01/10 09:12:32;;;;;;;21.57;12.90;;;;;;;1.60;59.77;97178.53;5044045;28;20879;-65
2021/01/10 09:15:00;;;;;;;23.77;13.67;;;;;;;1.68;59.77;97179.72;5072025;28;20416;-65
2021/01/10 09:17:36;;;;;;;23.73;12.87;;;;;;;1.49;59.98;97171.50;5070746;28;20531;-66
2021/01/10 09:20:09;;;;;;;19.33;12.40;;;;;;;1.65;60.04;97179.91;5055418;28;20440;-66
2021/01/10 09:22:35;;;;;;;20.40;13.07;;;;;;;1.44;60.60;97182.13;5073611;28;20408;-66
2021/01/10 09:25:13;;;;;;;22.30;12.37;;;;;;;1.69;59.93;97189.13;5072393;28;20783;-65
2021/01/10 09:27:39;;;;;;;19.97;12.40;;;;;;;1.73;59.88;97189.75;5073767;28;20433;-65
2021/01/10 09:30:08;;;;;;;23.77;13.50;;;;;;;1.81;59.95;97192.72;5071641;28;20412;-65
2021/01/10 09:32:34;;;;;;;19.50;12.70;;;;;;;1.92;59.31;97186.03;5072545;28;20412;-64
2021/01/10 09:35:00;;;;;;;17.97;12.00;;;;;;;1.91;59.45;97192.94;5071054;28;20970;-65
2021/01/10 09:37:30;;;;;;;22.83;11.83;;;;;;;1.93;58.95;97192.84;5071387;28;20224;-63
2021/01/10 09:40:07;;;;;;;19.37;11.77;;;;;;;1.81;59.32;97189.28;5063141;28;20772;-65
2021/01/10 09:42:49;;;;;;;16.40;11.07;;;;;;;1.82;59.35;97191.78;5058290;28;20416;-65
2021/01/10 09:45:16;;;;;;;18.70;11.10;;;;;;;2.06;58.14;97188.53;5057946;28;20448;-67
2021/01/10 09:47:42;;;;;;;16.67;11.07;;;;;;;1.74;59.39;97195.78;5065537;28;20437;-66
2021/01/10 09:50:09;;;;;;;16.50;11.50;;;;;;;2.08;58.02;97193.59;5071182;28;20409;-65
2021/01/10 09:52:45;;;;;;;18.70;11.67;;;;;;;2.25;57.67;97180.41;5063355;28;20413;-65
2021/01/10 09:55:11;;;;;;;17.03;11.27;;;;;;;2.07;57.38;97184.19;5077850;28;20832;-65
2021/01/10 09:57:39;;;;;;;15.87;10.10;;;;;;;2.27;57.26;97185.47;5081109;28;20433;-66
2021/01/10 10:00:13;;;;;;;14.30;9.80;;;;;;;2.22;56.27;97183.19;5073053;28;20186;-64
2021/01/10 10:02:39;;;;;;;11.63;8.77;;;;;;;1.80;56.78;97193.63;5065004;28;20574;-64
2021/01/10 10:05:16;;;;;;;12.27;8.60;;;;;;;1.80;56.99;97183.28;5071007;28;20454;-65
2021/01/10 10:07:45;;;;;;;9.90;7.13;;;;;;;2.18;55.38;97181.72;5063864;28;20440;-64
2021/01/10 10:10:22;;;;;;;12.47;7.80;;;;;;;2.01;56.16;97182.84;5054507;28;20809;-67
2021/01/10 10:12:55;;;;;;;11.10;7.40;;;;;;;2.24;55.22;97173.59;5048993;28;20417;-67
2021/01/10 10:15:22;;;;;;;10.50;7.10;;;;;;;2.04;54.80;97172.31;5071903;28;20445;-66
2021/01/10 10:17:48;;;;;;;10.20;6.60;;;;;;;1.82;55.18;97178.00;5070430;28;20498;-65
2021/01/10 10:20:14;;;;;;;9.93;6.80;;;;;;;2.27;54.51;97175.94;5053903;28;20565;-65
2021/01/10 10:22:40;;;;;;;7.40;5.53;;;;;;;1.97;54.60;97179.63;5071932;28;20416;-66
2021/01/10 10:25:07;;;;;;;10.57;6.90;;;;;;;2.22;54.58;97169.41;5071375;28;20178;-65
2021/01/10 10:27:34;;;;;;;7.03;5.63;;;;;;;2.39;53.76;97173.50;5070482;28;20927;-65
2021/01/10 10:30:00;;;;;;;8.10;6.37;;;;;;;2.24;54.61;97172.75;5070833;28;20911;-66
2021/01/10 10:32:27;;;;;;;9.43;6.40;;;;;;;2.64;53.67;97164.09;5071654;28;20412;-66
2021/01/10 10:34:53;;;;;;;8.50;5.30;;;;;;;2.24;53.75;97163.25;5069340;28;20629;-66
2021/01/10 10:37:20;;;;;;;8.00;6.30;;;;;;;2.41;53.10;97166.44;5066380;28;20463;-66
2021/01/10 10:39:46;;;;;;;9.27;6.57;;;;;;;2.52;53.01;97163.16;5071113;28;20416;-65
2021/01/10 10:42:14;;;;;;;10.37;6.90;;;;;;;2.35;53.27;97159.91;5056209;28;20467;-67
2021/01/10 10:44:40;;;;;;;9.10;6.23;;;;;;;2.56;53.49;97154.25;5063801;28;20431;-66
2021/01/10 10:47:09;;;;;;;8.60;5.80;;;;;;;2.47;53.51;97153.13;5067332;28;20577;-65
2021/01/10 10:49:34;;;;;;;8.80;6.10;;;;;;;2.34;53.88;97155.69;5067203;28;20754;-66
2021/01/10 10:52:00;;;;;;;10.13;7.93;;;;;;;2.46;53.90;97157.44;5063507;28;20413;-68
2021/01/10 10:54:26;;;;;;;14.60;8.93;;;;;;;2.37;54.36;97158.06;5070665;28;20185;-66
2021/01/10 10:56:52;;;;;;;13.63;9.47;;;;;;;2.35;55.24;97153.94;5071889;28;20247;-65
2021/01/10 10:59:18;;;;;;;13.17;8.70;;;;;;;2.63;54.50;97133.97;5067214;28;20167;-66
2021/01/10 11:01:50;;;;;;;12.37;8.93;;;;;;;2.64;54.36;97140.81;5068330;28;20185;-70
2021/01/10 11:04:16;;;;;;;12.50;8.93;;;;;;;2.28;55.45;97143.16;5069940;28;20442;-65
2021/01/10 11:06:41;;;;;;;17.30;10.27;;;;;;;2.54;55.07;97140.59;5071630;28;20483;-66
2021/01/10 11:09:10;;;;;;;13.33;9.43;;;;;;;2.88;54.75;97135.69;5073179;28;20181;-67
2021/01/10 11:11:45;;;;;;;20.33;10.60;;;;;;;2.78;54.36;97138.09;5062283;28;20176;-64
2021/01/10 11:14:12;;;;;;;15.27;9.50;;;;;;;2.90;53.41;97131.25;5065269;28;20428;-65
2021/01/10 11:16:39;;;;;;;18.73;11.03;;;;;;;3.04;53.86;97130.28;5066231;28;20479;-66
2021/01/10 11:19:06;;;;;;;15.50;10.17;;;;;;;3.11;54.11;97128.09;5076463;28;20861;-66
2021/01/10 11:21:34;;;;;;;17.63;10.33;;;;;;;2.61;54.61;97131.47;5079363;28;20419;-67
2021/01/10 11:24:01;;;;;;;17.77;11.57;;;;;;;2.66;55.83;97125.97;5068183;28;20410;-65
2021/01/10 11:26:27;;;;;;;16.43;11.00;;;;;;;2.85;55.29;97121.22;5075708;28;20448;-65
2021/01/10 11:28:52;;;;;;;17.33;10.87;;;;;;;2.96;55.15;97124.81;5074694;28;20954;-65
2021/01/10 11:31:19;;;;;;;17.43;11.90;;;;;;;2.51;56.44;97130.44;5076252;28;20175;-67